Onondaga, Michigan
Current Conditions -  °F | °C
As of 9:32 AM on Saturday 25 Oct 2014 (Local Time) from KTEW Reporting Station
Overcast Overcast  
Wind Chill: 55°   Ceiling: 1100
Heat Index: 55°   Visibility: 7mi
Dew Point: 51°   Wind: 7mph
Humidity: 86%   Direction: 250°WSW
Pressure: 29.83"   Gusts: NA
Location:  42.44°N, 84.56°W
Report Text: KTEW 251332Z AUTO 25006KT 7SM OVC011 13/11 A2983 RMK AO2 T01280106
Loading
Personal Weather Stations






























Interactive Weather Map
Tropical Storm Tracking
New forecast layout! Learn more

10-Day Weather Forecast

Advertisements
Track Severe Weather on mobile